Time;durP1;ratioP1;P1;durP2;ratioP2;P2;SDS_P1;SDS_P2;PMS_P1;PMS_P2;Temp;Humidity;BMP_temperature;BMP_pressure;BME280_temperature;BME280_humidity;BME280_pressure;Samples;Min_cycle;Max_cycle;Signal;HPM_P1;HPM_P2
2023/06/29 00:01:05;;;;;;;37.38;26.15;;;18.90;99.90;;;;;;5028015;28;20052;-75
2023/06/29 00:03:31;;;;;;;36.05;25.77;;;18.90;99.90;;;;;;5030384;28;20099;-75
2023/06/29 00:05:58;;;;;;;38.70;25.30;;;18.80;99.90;;;;;;5028263;28;20037;-75
2023/06/29 00:08:29;;;;;;;41.65;25.73;;;18.80;99.90;;;;;;5027759;28;20136;-75
2023/06/29 00:10:56;;;;;;;41.05;25.83;;;18.90;99.90;;;;;;5030945;28;20056;-75
2023/06/29 00:13:24;;;;;;;35.25;24.77;;;18.90;99.90;;;;;;5038735;28;20045;-75
2023/06/29 00:15:50;;;;;;;34.58;23.90;;;18.90;99.90;;;;;;5042733;28;20073;-75
2023/06/29 00:18:18;;;;;;;32.72;23.73;;;18.90;99.90;;;;;;5033670;28;20077;-75
2023/06/29 00:20:44;;;;;;;35.28;22.92;;;18.90;99.90;;;;;;5026530;28;20045;-75
2023/06/29 00:23:10;;;;;;;34.00;23.58;;;18.90;99.90;;;;;;5027571;28;20052;-74
2023/06/29 00:25:38;;;;;;;33.00;22.50;;;18.90;99.90;;;;;;5028506;28;20555;-75
2023/06/29 00:28:04;;;;;;;35.95;23.52;;;18.90;99.90;;;;;;5028619;28;20068;-75
2023/06/29 00:30:30;;;;;;;33.35;21.88;;;18.90;99.90;;;;;;5027390;28;20053;-75
2023/06/29 00:32:55;;;;;;;34.17;22.65;;;18.90;99.90;;;;;;5030383;28;20051;-75
2023/06/29 00:35:21;;;;;;;34.33;24.83;;;18.90;99.90;;;;;;5029948;28;20485;-75
2023/06/29 00:37:47;;;;;;;34.35;22.70;;;18.90;99.90;;;;;;5031395;28;20059;-74
2023/06/29 00:40:13;;;;;;;38.50;23.63;;;18.90;99.90;;;;;;5029758;28;20055;-74
2023/06/29 00:42:39;;;;;;;31.85;23.00;;;18.90;99.90;;;;;;5042021;28;20057;-75
2023/06/29 00:45:05;;;;;;;41.00;24.33;;;18.90;99.90;;;;;;5026911;28;20059;-75
2023/06/29 00:47:32;;;;;;;33.75;23.45;;;18.90;99.90;;;;;;5029305;28;20051;-75
2023/06/29 00:49:59;;;;;;;35.70;22.67;;;18.90;99.90;;;;;;5031099;28;20029;-75
2023/06/29 00:52:25;;;;;;;38.42;24.73;;;18.90;99.90;;;;;;5024018;28;20477;-75
2023/06/29 00:54:53;;;;;;;36.45;23.50;;;18.90;99.90;;;;;;5019238;28;20114;-75
2023/06/29 00:57:19;;;;;;;39.55;24.50;;;18.90;99.90;;;;;;5027520;28;20041;-75
2023/06/29 00:59:45;;;;;;;34.40;24.17;;;18.90;99.90;;;;;;5046091;28;20463;-75
2023/06/29 01:02:11;;;;;;;39.42;24.90;;;18.90;99.90;;;;;;5012839;28;20049;-75
2023/06/29 01:04:37;;;;;;;37.22;25.55;;;18.90;99.90;;;;;;5030620;28;20041;-75
2023/06/29 01:07:26;;;;;;;41.13;27.52;;;18.90;99.90;;;;;;5028255;28;20057;-75
2023/06/29 01:09:53;;;;;;;39.63;26.45;;;18.90;99.90;;;;;;5029460;28;20060;-75
2023/06/29 01:12:19;;;;;;;43.03;27.50;;;18.90;99.90;;;;;;5035470;28;20492;-76
2023/06/29 01:14:46;;;;;;;40.65;26.15;;;18.80;99.90;;;;;;5031255;28;20076;-75
2023/06/29 01:17:18;;;;;;;44.20;28.65;;;18.90;99.90;;;;;;5025257;28;20051;-76
2023/06/29 01:19:49;;;;;;;42.88;28.50;;;18.90;99.90;;;;;;5030352;28;20048;-75
2023/06/29 01:22:32;;;;;;;44.30;29.33;;;18.90;99.90;;;;;;5012560;28;20103;-75
2023/06/29 01:24:59;;;;;;;45.88;30.65;;;18.90;99.90;;;;;;5033214;28;20034;-75
2023/06/29 01:27:25;;;;;;;48.08;30.13;;;18.80;99.90;;;;;;5028170;28;20075;-75
2023/06/29 01:29:53;;;;;;;48.03;30.40;;;18.90;99.90;;;;;;5048393;28;20065;-75
2023/06/29 01:32:19;;;;;;;46.65;31.23;;;18.90;99.90;;;;;;5042989;28;20037;-76
2023/06/29 01:34:44;;;;;;;48.60;31.60;;;18.90;99.90;;;;;;5032403;28;20049;-76
2023/06/29 01:37:17;;;;;;;46.17;30.38;;;18.80;99.90;;;;;;5038006;28;20041;-76
2023/06/29 01:40:01;;;;;;;48.42;29.13;;;18.90;99.90;;;;;;5040134;28;20053;-76
2023/06/29 01:42:29;;;;;;;47.70;31.05;;;18.90;99.90;;;;;;5013972;28;20597;-76
2023/06/29 01:44:56;;;;;;;47.40;31.75;;;18.80;99.90;;;;;;5031175;28;20072;-75
2023/06/29 01:47:22;;;;;;;52.13;31.25;;;18.90;99.90;;;;;;5031804;28;20765;-75
2023/06/29 01:49:48;;;;;;;51.92;32.72;;;18.80;99.90;;;;;;5005484;28;20053;-76
2023/06/29 01:52:14;;;;;;;55.38;32.78;;;18.90;99.90;;;;;;5029510;28;20034;-77
2023/06/29 01:54:40;;;;;;;49.65;31.88;;;18.80;99.90;;;;;;5031371;28;20056;-75
2023/06/29 01:57:07;;;;;;;48.10;32.63;;;18.80;99.90;;;;;;5032272;28;20095;-76
2023/06/29 01:59:33;;;;;;;51.65;32.65;;;18.80;99.90;;;;;;5032695;28;20064;-76
2023/06/29 02:01:59;;;;;;;51.63;33.67;;;18.80;99.90;;;;;;5032408;28;20759;-76
2023/06/29 02:04:25;;;;;;;51.08;31.85;;;18.80;99.90;;;;;;5028261;28;20065;-76
2023/06/29 02:06:51;;;;;;;50.90;32.97;;;18.80;99.90;;;;;;5024881;28;20170;-74
2023/06/29 02:09:16;;;;;;;52.75;33.35;;;18.80;99.90;;;;;;5031886;28;20449;-74
2023/06/29 02:11:42;;;;;;;54.10;34.60;;;18.80;99.90;;;;;;5035438;28;20052;-75
2023/06/29 02:14:08;;;;;;;46.80;32.25;;;18.90;99.90;;;;;;5034385;28;20060;-75
2023/06/29 02:16:33;;;;;;;52.58;33.33;;;18.90;99.90;;;;;;5031364;28;20146;-75
2023/06/29 02:18:59;;;;;;;45.83;32.15;;;18.90;99.90;;;;;;5032187;28;20037;-75
2023/06/29 02:21:25;;;;;;;53.33;32.22;;;18.80;99.90;;;;;;5032498;28;20047;-74
2023/06/29 02:23:50;;;;;;;50.63;32.60;;;18.80;99.90;;;;;;5036086;28;20052;-75
2023/06/29 02:26:16;;;;;;;54.05;33.95;;;18.80;99.90;;;;;;5034152;28;20424;-75
2023/06/29 02:28:42;;;;;;;49.17;33.03;;;18.80;99.90;;;;;;5033308;28;20557;-76
2023/06/29 02:31:07;;;;;;;50.97;32.95;;;18.80;99.90;;;;;;5030461;28;20076;-76
2023/06/29 02:33:33;;;;;;;49.40;32.70;;;18.90;99.90;;;;;;5033363;28;20094;-76
2023/06/29 02:35:59;;;;;;;49.97;31.27;;;18.80;99.90;;;;;;5030139;28;20048;-76
2023/06/29 02:38:24;;;;;;;52.17;30.80;;;18.80;99.90;;;;;;5047831;28;20037;-75
2023/06/29 02:40:50;;;;;;;45.58;30.13;;;18.80;99.90;;;;;;5034552;28;20132;-76
2023/06/29 02:43:16;;;;;;;43.38;28.88;;;18.80;99.90;;;;;;5026668;28;20038;-76
2023/06/29 02:45:42;;;;;;;43.17;27.88;;;18.80;99.90;;;;;;5027689;28;20077;-76
2023/06/29 02:48:07;;;;;;;40.78;25.85;;;18.80;99.90;;;;;;5034857;28;20075;-76
2023/06/29 02:50:33;;;;;;;41.17;26.58;;;18.90;99.90;;;;;;5033913;28;20076;-75
2023/06/29 02:52:59;;;;;;;40.42;26.67;;;18.90;99.90;;;;;;5033232;28;20045;-75
2023/06/29 02:55:25;;;;;;;35.55;25.27;;;18.80;99.90;;;;;;5036256;28;20045;-76
2023/06/29 02:57:51;;;;;;;39.25;24.88;;;18.80;99.90;;;;;;5034564;28;20530;-74
2023/06/29 03:00:17;;;;;;;42.75;25.70;;;18.80;99.90;;;;;;5034702;28;20049;-74
2023/06/29 03:02:42;;;;;;;36.60;25.20;;;18.90;99.90;;;;;;5039522;28;20056;-75
2023/06/29 03:05:08;;;;;;;39.20;24.17;;;18.80;99.90;;;;;;5037270;28;20155;-75
2023/06/29 03:07:34;;;;;;;37.50;25.23;;;18.80;99.90;;;;;;5032453;28;20034;-75
2023/06/29 03:10:00;;;;;;;32.00;23.95;;;18.80;99.90;;;;;;5040812;28;20482;-75
2023/06/29 03:12:26;;;;;;;32.33;23.45;;;18.80;99.90;;;;;;5027979;28;20034;-75
2023/06/29 03:14:51;;;;;;;33.53;23.13;;;18.90;99.90;;;;;;5037804;28;20043;-75
2023/06/29 03:17:17;;;;;;;37.55;23.48;;;18.80;99.90;;;;;;5035559;28;20099;-75
2023/06/29 03:19:44;;;;;;;32.67;22.92;;;18.90;99.90;;;;;;5043770;28;20044;-75
2023/06/29 03:22:10;;;;;;;31.90;22.95;;;18.80;99.90;;;;;;5017553;28;20056;-76
2023/06/29 03:24:36;;;;;;;34.17;22.90;;;18.90;99.90;;;;;;5037443;28;20040;-76
2023/06/29 03:27:01;;;;;;;32.08;23.00;;;18.80;99.90;;;;;;5036270;28;20203;-76
2023/06/29 03:29:27;;;;;;;34.03;22.23;;;18.80;99.90;;;;;;5034208;28;20069;-76
2023/06/29 03:31:53;;;;;;;36.63;23.15;;;18.90;99.90;;;;;;5032590;28;20049;-75
2023/06/29 03:34:19;;;;;;;32.42;22.83;;;18.80;99.90;;;;;;5036915;28;20045;-76
2023/06/29 03:36:44;;;;;;;35.28;22.45;;;18.90;99.90;;;;;;5032059;28;20507;-76
2023/06/29 03:39:10;;;;;;;29.73;22.50;;;18.90;99.90;;;;;;5036197;28;20418;-76
2023/06/29 03:41:36;;;;;;;29.30;21.20;;;18.90;99.90;;;;;;5033298;28;20526;-76
2023/06/29 03:44:02;;;;;;;31.35;21.83;;;18.90;99.90;;;;;;5035108;28;20048;-75
2023/06/29 03:46:27;;;;;;;31.15;21.98;;;18.90;99.90;;;;;;5046927;28;20045;-76
2023/06/29 03:48:53;;;;;;;31.13;21.63;;;18.90;99.90;;;;;;5019956;28;20507;-76
2023/06/29 03:51:19;;;;;;;30.67;22.55;;;18.90;99.90;;;;;;5031451;28;20049;-76
2023/06/29 03:53:44;;;;;;;33.58;22.23;;;18.90;99.90;;;;;;5037830;28;20033;-76
2023/06/29 03:56:10;;;;;;;33.25;21.60;;;18.90;99.90;;;;;;5039116;28;20045;-76
2023/06/29 03:58:36;;;;;;;28.92;21.92;;;18.90;99.90;;;;;;5033793;28;20568;-76
2023/06/29 04:01:02;;;;;;;32.50;22.88;;;18.90;99.90;;;;;;5035205;28;20041;-75
2023/06/29 04:03:27;;;;;;;33.85;21.98;;;19.00;99.90;;;;;;5028621;28;20041;-77
2023/06/29 04:05:53;;;;;;;32.83;21.65;;;18.90;99.90;;;;;;5039338;28;20071;-76
2023/06/29 04:08:19;;;;;;;27.30;21.38;;;19.00;99.90;;;;;;5035793;28;20094;-75
2023/06/29 04:10:44;;;;;;;28.23;20.73;;;19.00;99.90;;;;;;5036224;28;20134;-75
2023/06/29 04:13:10;;;;;;;32.97;21.52;;;19.00;99.90;;;;;;5023771;28;20502;-75
2023/06/29 04:15:36;;;;;;;31.25;22.65;;;19.00;99.90;;;;;;5029330;28;20120;-76
2023/06/29 04:18:01;;;;;;;30.17;20.48;;;19.00;99.90;;;;;;5041748;28;20068;-76
2023/06/29 04:20:28;;;;;;;32.45;22.73;;;19.00;99.90;;;;;;5038550;28;20094;-76
2023/06/29 04:22:55;;;;;;;31.50;20.45;;;19.00;99.90;;;;;;5039940;28;20508;-76
2023/06/29 04:25:21;;;;;;;32.58;22.30;;;19.10;99.90;;;;;;5030678;28;20033;-76
2023/06/29 04:27:46;;;;;;;36.15;22.63;;;19.00;99.90;;;;;;5036467;28;20658;-76
2023/06/29 04:30:12;;;;;;;31.90;22.45;;;19.10;99.90;;;;;;5037536;28;20037;-76
2023/06/29 04:32:38;;;;;;;26.73;20.17;;;19.10;99.90;;;;;;5042885;28;20116;-76
2023/06/29 04:35:05;;;;;;;35.42;23.35;;;19.10;99.90;;;;;;5037305;28;20037;-76
2023/06/29 04:37:40;;;;;;;33.13;23.45;;;19.10;99.90;;;;;;5040440;28;20050;-76
2023/06/29 04:40:09;;;;;;;32.92;22.13;;;19.00;99.90;;;;;;5020382;28;20045;-76
2023/06/29 04:42:43;;;;;;;32.22;23.45;;;19.00;99.90;;;;;;5042029;28;20128;-76
2023/06/29 04:45:18;;;;;;;34.90;22.60;;;19.10;99.90;;;;;;5019998;28;20488;-75
2023/06/29 04:47:51;;;;;;;35.55;23.25;;;19.10;99.90;;;;;;5051001;28;20072;-75
2023/06/29 04:50:25;;;;;;;34.78;23.17;;;19.00;99.90;;;;;;5033872;28;20041;-74
2023/06/29 04:52:54;;;;;;;39.20;25.20;;;19.00;99.90;;;;;;5037981;28;20326;-73
2023/06/29 04:55:21;;;;;;;38.42;23.35;;;18.90;99.90;;;;;;5043179;28;20520;-74
2023/06/29 04:57:46;;;;;;;34.55;23.85;;;18.90;99.90;;;;;;5040490;28;20503;-74
2023/06/29 05:00:13;;;;;;;34.72;24.15;;;19.00;99.90;;;;;;5038771;28;20045;-75
2023/06/29 05:02:38;;;;;;;34.08;22.80;;;19.00;99.90;;;;;;5043792;28;20046;-76
2023/06/29 05:05:05;;;;;;;39.30;24.13;;;18.90;99.90;;;;;;5017902;28;20056;-75
2023/06/29 05:07:30;;;;;;;35.70;23.73;;;19.00;99.90;;;;;;5039607;28;20047;-76
2023/06/29 05:09:57;;;;;;;34.80;23.67;;;18.90;99.90;;;;;;5020456;28;20041;-75
2023/06/29 05:12:22;;;;;;;39.05;25.10;;;18.90;99.90;;;;;;5025424;28;20037;-75
2023/06/29 05:14:48;;;;;;;37.63;24.20;;;18.90;99.90;;;;;;5035227;28;20087;-75
2023/06/29 05:17:14;;;;;;;34.60;23.35;;;18.90;99.90;;;;;;5040222;28;20668;-75
2023/06/29 05:19:39;;;;;;;38.92;24.80;;;18.80;99.90;;;;;;5038633;28;20052;-75
2023/06/29 05:22:05;;;;;;;36.88;24.63;;;18.90;99.90;;;;;;5042350;28;20095;-76
2023/06/29 05:24:31;;;;;;;37.00;24.80;;;18.80;99.90;;;;;;5041711;28;20091;-75
2023/06/29 05:26:57;;;;;;;37.80;24.45;;;18.80;99.90;;;;;;5040281;28;20512;-74
2023/06/29 05:29:22;;;;;;;39.63;24.23;;;18.90;99.90;;;;;;5037591;28;20447;-74
2023/06/29 05:31:48;;;;;;;35.97;22.77;;;18.90;99.90;;;;;;5038809;28;20063;-74
2023/06/29 05:34:14;;;;;;;37.97;25.23;;;18.90;99.90;;;;;;5032785;28;20087;-74
2023/06/29 05:36:39;;;;;;;39.53;24.77;;;18.80;99.90;;;;;;5040405;28;20041;-74
2023/06/29 05:39:06;;;;;;;35.05;24.33;;;18.80;99.90;;;;;;5038715;28;20044;-75
2023/06/29 05:41:32;;;;;;;36.90;24.00;;;18.80;99.90;;;;;;5042777;28;20040;-73
2023/06/29 05:43:59;;;;;;;39.67;23.63;;;18.90;99.90;;;;;;5038839;28;20041;-74
2023/06/29 05:46:25;;;;;;;35.63;24.60;;;18.80;99.90;;;;;;5019420;28;20038;-74
2023/06/29 05:48:51;;;;;;;35.58;23.08;;;18.90;99.90;;;;;;5021486;28;20098;-73
2023/06/29 05:51:16;;;;;;;38.40;24.27;;;18.90;99.90;;;;;;5047200;28;20033;-76
2023/06/29 05:53:42;;;;;;;34.92;23.42;;;18.90;99.90;;;;;;5036359;28;20664;-72
2023/06/29 05:56:07;;;;;;;34.08;23.80;;;18.90;99.90;;;;;;5039206;28;20044;-72
2023/06/29 05:58:33;;;;;;;37.03;24.83;;;19.00;99.90;;;;;;5032503;28;20117;-72
2023/06/29 06:00:59;;;;;;;40.47;24.95;;;18.90;99.90;;;;;;5033422;28;20488;-72
2023/06/29 06:03:25;;;;;;;34.17;22.80;;;19.00;99.90;;;;;;5033579;28;20037;-72
2023/06/29 06:05:51;;;;;;;39.15;23.55;;;19.00;99.90;;;;;;5030033;28;20535;-72
2023/06/29 06:08:17;;;;;;;34.65;22.65;;;19.00;99.90;;;;;;5034915;28;20559;-71
2023/06/29 06:10:42;;;;;;;33.47;21.90;;;19.10;99.90;;;;;;5028204;28;20124;-72
2023/06/29 06:13:08;;;;;;;38.03;23.00;;;19.10;99.90;;;;;;5038209;28;20041;-69
2023/06/29 06:15:34;;;;;;;35.25;22.23;;;19.10;99.90;;;;;;5015489;28;20124;-69
2023/06/29 06:17:59;;;;;;;33.65;23.13;;;19.20;99.90;;;;;;5038659;28;20136;-70
2023/06/29 06:20:25;;;;;;;32.50;23.20;;;19.20;99.90;;;;;;5044656;28;20480;-72
2023/06/29 06:22:51;;;;;;;35.45;23.33;;;19.20;99.90;;;;;;5038056;28;20580;-76
2023/06/29 06:25:17;;;;;;;36.40;22.73;;;19.20;99.90;;;;;;5033703;28;20572;-75
2023/06/29 06:27:46;;;;;;;33.72;22.58;;;19.30;99.90;;;;;;5038334;28;20147;-71
2023/06/29 06:30:11;;;;;;;32.60;23.42;;;19.30;99.90;;;;;;5041072;28;20060;-73
2023/06/29 06:32:39;;;;;;;36.70;22.83;;;19.40;99.90;;;;;;5036423;28;21892;-71
2023/06/29 06:35:07;;;;;;;35.38;22.42;;;19.50;99.90;;;;;;5035500;28;20037;-75
2023/06/29 06:37:37;;;;;;;37.17;24.33;;;19.40;99.90;;;;;;5036884;28;20488;-75
2023/06/29 06:40:09;;;;;;;35.38;22.48;;;19.50;99.90;;;;;;5042566;28;20088;-76
2023/06/29 06:42:39;;;;;;;36.92;23.63;;;19.50;99.90;;;;;;5042399;28;20068;-76
2023/06/29 06:45:06;;;;;;;32.20;22.77;;;19.50;99.90;;;;;;5038599;28;20176;-76
2023/06/29 06:47:34;;;;;;;42.15;23.67;;;19.50;99.90;;;;;;5039321;28;20045;-78
2023/06/29 06:50:00;;;;;;;34.33;23.83;;;19.50;99.90;;;;;;5035663;28;20045;-77
2023/06/29 06:52:26;;;;;;;35.17;23.80;;;19.60;99.90;;;;;;5033676;28;20038;-77
2023/06/29 06:54:52;;;;;;;37.22;23.73;;;19.50;99.90;;;;;;5030342;28;20252;-76
2023/06/29 06:57:18;;;;;;;37.28;24.42;;;19.60;99.90;;;;;;5026952;28;20048;-79
2023/06/29 06:59:44;;;;;;;33.67;23.90;;;19.60;99.90;;;;;;5024905;28;20179;-80
2023/06/29 07:02:09;;;;;;;37.33;24.45;;;19.60;99.90;;;;;;5026432;28;20142;-78
2023/06/29 07:04:35;;;;;;;39.00;23.45;;;19.70;99.90;;;;;;5008509;28;20052;-80
2023/06/29 07:07:01;;;;;;;38.92;25.13;;;19.70;99.90;;;;;;5035318;28;20041;-77
2023/06/29 07:09:27;;;;;;;39.13;25.55;;;19.70;99.90;;;;;;5037940;28;20057;-83
2023/06/29 07:11:53;;;;;;;35.55;24.58;;;19.70;99.90;;;;;;5043226;28;20555;-70
2023/06/29 07:14:18;;;;;;;40.13;25.75;;;19.70;99.90;;;;;;5035435;28;20045;-66
2023/06/29 07:16:44;;;;;;;38.40;25.50;;;19.80;99.90;;;;;;5038251;28;20047;-71
2023/06/29 07:19:14;;;;;;;39.63;27.00;;;19.80;99.90;;;;;;5033277;28;20041;-69
2023/06/29 07:21:40;;;;;;;39.63;25.23;;;19.90;99.90;;;;;;5025643;28;20104;-67
2023/06/29 07:24:06;;;;;;;38.35;26.27;;;19.90;99.90;;;;;;5027481;28;20051;-68
2023/06/29 07:26:32;;;;;;;42.20;27.13;;;19.90;99.90;;;;;;5032524;28;20041;-68
2023/06/29 07:28:57;;;;;;;40.97;25.73;;;20.00;99.90;;;;;;5033886;28;20049;-67
2023/06/29 07:31:24;;;;;;;40.10;26.90;;;20.00;99.90;;;;;;5031408;28;20048;-77
2023/06/29 07:33:54;;;;;;;38.67;26.08;;;20.00;99.90;;;;;;5034455;28;20055;-75
2023/06/29 07:36:21;;;;;;;40.33;26.90;;;20.10;99.90;;;;;;5030900;28;20040;-76
2023/06/29 07:38:47;;;;;;;41.38;27.60;;;20.10;99.90;;;;;;5027135;28;20075;-75
2023/06/29 07:41:13;;;;;;;43.25;27.33;;;20.10;99.90;;;;;;5029512;28;20044;-76
2023/06/29 07:43:45;;;;;;;41.72;27.60;;;20.10;99.90;;;;;;5035078;28;20338;-76
2023/06/29 07:46:11;;;;;;;42.53;27.25;;;20.10;99.90;;;;;;5027792;28;20045;-76
2023/06/29 07:48:37;;;;;;;42.25;28.77;;;20.10;99.90;;;;;;5029817;28;20528;-76
2023/06/29 07:51:03;;;;;;;40.65;28.25;;;20.10;99.90;;;;;;5035782;28;20087;-78
2023/06/29 07:53:30;;;;;;;40.00;27.15;;;20.10;99.90;;;;;;5036431;28;20045;-66
2023/06/29 07:55:56;;;;;;;41.67;28.17;;;20.10;99.90;;;;;;5049933;28;20041;-68
2023/06/29 07:58:21;;;;;;;41.95;26.75;;;20.00;99.90;;;;;;5043585;28;20045;-67
2023/06/29 08:00:47;;;;;;;37.13;26.90;;;20.00;99.90;;;;;;5042701;28;20044;-70
2023/06/29 08:03:13;;;;;;;41.72;27.75;;;20.00;99.90;;;;;;5034165;28;20050;-69
2023/06/29 08:05:39;;;;;;;46.33;29.10;;;19.90;99.90;;;;;;5035664;28;20095;-68
2023/06/29 08:08:04;;;;;;;40.95;28.70;;;20.00;99.90;;;;;;5035021;28;20326;-69
2023/06/29 08:10:30;;;;;;;40.58;28.58;;;19.90;99.90;;;;;;5033333;28;20037;-69
2023/06/29 08:12:55;;;;;;;45.47;28.95;;;19.90;99.90;;;;;;5035589;28;20144;-74
2023/06/29 08:15:21;;;;;;;42.63;28.00;;;19.90;99.90;;;;;;5031161;28;20538;-74
2023/06/29 08:17:47;;;;;;;41.85;28.35;;;19.90;99.90;;;;;;5021407;28;20492;-74
2023/06/29 08:20:13;;;;;;;42.20;29.42;;;19.90;99.90;;;;;;5044069;28;20393;-78
2023/06/29 08:22:40;;;;;;;42.28;29.50;;;19.90;99.90;;;;;;5037841;28;20103;-77
2023/06/29 08:25:06;;;;;;;41.17;28.90;;;19.90;99.90;;;;;;5034408;28;20050;-83
2023/06/29 08:27:32;;;;;;;41.78;29.27;;;19.90;99.90;;;;;;5037251;28;20047;-78
2023/06/29 08:29:57;;;;;;;40.90;29.70;;;19.90;99.90;;;;;;5040088;28;20029;-82
2023/06/29 08:32:23;;;;;;;39.75;27.92;;;20.00;99.90;;;;;;5050597;28;20045;-83
2023/06/29 08:34:49;;;;;;;40.72;28.15;;;20.00;99.90;;;;;;5034936;28;20048;-83
2023/06/29 08:37:15;;;;;;;40.38;26.73;;;20.00;99.90;;;;;;5031869;28;20433;-79
2023/06/29 08:39:41;;;;;;;41.83;27.58;;;19.90;99.90;;;;;;5039759;28;20091;-79
2023/06/29 08:42:06;;;;;;;38.55;26.88;;;19.80;99.90;;;;;;5045319;28;20045;-79
2023/06/29 08:44:33;;;;;;;39.03;27.00;;;19.70;99.90;;;;;;5045135;28;20044;-79
2023/06/29 08:47:01;;;;;;;41.70;27.77;;;19.70;99.90;;;;;;5037428;28;20672;-79
2023/06/29 08:49:27;;;;;;;43.20;28.30;;;19.70;99.90;;;;;;5039465;28;20044;-78
2023/06/29 08:52:00;;;;;;;43.85;30.15;;;19.60;99.90;;;;;;5040274;28;20090;-79
2023/06/29 08:54:26;;;;;;;45.00;31.67;;;19.60;99.90;;;;;;5039263;28;20132;-78
2023/06/29 08:56:52;;;;;;;47.17;32.13;;;19.50;99.90;;;;;;5021125;28;20472;-77
2023/06/29 08:59:20;;;;;;;47.25;31.92;;;19.50;99.90;;;;;;5037964;28;20052;-78
2023/06/29 09:01:46;;;;;;;49.10;32.00;;;19.60;99.90;;;;;;5042509;28;20080;-78
2023/06/29 09:04:11;;;;;;;50.15;31.83;;;19.60;99.90;;;;;;5041457;28;20068;-78
2023/06/29 09:06:40;;;;;;;51.65;33.20;;;19.60;99.90;;;;;;5029522;28;20132;-79
2023/06/29 09:09:06;;;;;;;52.70;33.88;;;19.60;99.90;;;;;;5044248;28;20076;-77
2023/06/29 09:11:34;;;;;;;47.55;31.58;;;19.70;99.90;;;;;;5044043;28;20036;-78
2023/06/29 09:14:06;;;;;;;49.15;32.15;;;19.70;99.90;;;;;;5041722;28;20065;-78
2023/06/29 09:16:34;;;;;;;46.88;31.02;;;19.80;99.90;;;;;;5038463;28;20064;-78
2023/06/29 09:19:00;;;;;;;45.92;30.85;;;19.80;99.90;;;;;;5035124;28;20071;-79
2023/06/29 09:21:29;;;;;;;41.95;28.17;;;19.90;99.90;;;;;;5034858;28;20118;-79
2023/06/29 09:23:58;;;;;;;41.50;28.08;;;20.00;99.90;;;;;;5033395;28;20076;-79
2023/06/29 09:26:28;;;;;;;40.00;28.73;;;20.00;99.90;;;;;;5044300;28;20125;-80
2023/06/29 09:29:03;;;;;;;45.22;29.10;;;20.10;99.90;;;;;;5041803;28;20067;-79
2023/06/29 09:31:35;;;;;;;44.28;30.08;;;20.10;99.90;;;;;;5040171;28;20047;-79
2023/06/29 09:34:21;;;;;;;45.15;29.73;;;20.10;99.90;;;;;;5042066;28;20041;-79
2023/06/29 09:36:48;;;;;;;45.45;29.58;;;20.00;99.90;;;;;;5041941;28;20052;-79
2023/06/29 09:39:14;;;;;;;44.03;31.48;;;20.10;99.90;;;;;;5055360;28;20041;-79
2023/06/29 09:41:58;;;;;;;43.60;30.75;;;20.10;99.90;;;;;;5029068;28;20041;-79
2023/06/29 09:44:25;;;;;;;50.13;32.65;;;20.20;99.90;;;;;;5045753;28;20049;-79
2023/06/29 09:47:02;;;;;;;45.17;31.38;;;20.20;99.90;;;;;;5046611;28;20060;-79
2023/06/29 09:49:27;;;;;;;46.78;31.95;;;20.30;99.90;;;;;;5045691;28;20484;-79
2023/06/29 09:52:03;;;;;;;48.17;32.75;;;20.40;99.90;;;;;;5042009;28;20037;-78
2023/06/29 09:54:36;;;;;;;44.40;31.65;;;20.50;99.90;;;;;;5020059;28;20045;-79
2023/06/29 09:57:03;;;;;;;45.80;32.42;;;20.60;99.90;;;;;;5030307;28;20040;-78
2023/06/29 09:59:33;;;;;;;43.20;32.80;;;20.60;99.90;;;;;;5049097;28;20052;-78
2023/06/29 10:01:59;;;;;;;48.70;32.60;;;20.70;99.90;;;;;;5043494;28;20037;-78
2023/06/29 10:04:25;;;;;;;48.78;33.15;;;20.70;99.90;;;;;;5040255;28;20065;-79
2023/06/29 10:06:59;;;;;;;44.20;32.70;;;20.70;99.90;;;;;;5043841;28;20053;-78
2023/06/29 10:09:26;;;;;;;50.35;33.88;;;20.70;99.90;;;;;;5034676;28;20037;-78
2023/06/29 10:11:55;;;;;;;47.10;31.75;;;20.60;99.90;;;;;;5037303;28;20045;-79
2023/06/29 10:14:22;;;;;;;50.40;34.33;;;20.60;99.90;;;;;;5056635;28;20053;-78
2023/06/29 10:16:52;;;;;;;49.30;33.30;;;20.50;99.90;;;;;;5047898;28;20095;-78
2023/06/29 10:19:22;;;;;;;45.47;32.78;;;20.50;99.90;;;;;;5039075;28;20056;-78
2023/06/29 10:21:53;;;;;;;47.38;32.67;;;20.50;99.90;;;;;;5042121;28;20037;-78
2023/06/29 10:24:27;;;;;;;47.40;32.60;;;20.40;99.90;;;;;;5029436;28;20041;-79
2023/06/29 10:26:55;;;;;;;45.95;33.03;;;20.40;99.90;;;;;;5042948;28;20076;-79
2023/06/29 10:29:20;;;;;;;44.60;34.25;;;20.40;99.90;;;;;;5039855;28;20076;-79
2023/06/29 10:31:52;;;;;;;47.33;33.33;;;20.50;99.90;;;;;;5029084;28;20081;-79
2023/06/29 10:34:18;;;;;;;43.83;31.10;;;20.50;99.90;;;;;;5041986;28;20055;-79
2023/06/29 10:36:48;;;;;;;60.00;38.22;;;20.50;99.90;;;;;;5046754;28;20041;-82
2023/06/29 10:39:41;;;;;;;53.10;36.38;;;20.50;99.90;;;;;;5032670;28;20041;-82
2023/06/29 10:42:22;;;;;;;53.42;35.72;;;20.50;99.90;;;;;;5034374;28;20053;-80
2023/06/29 10:44:48;;;;;;;51.47;34.03;;;20.60;99.90;;;;;;5050601;28;20063;-81
2023/06/29 10:47:40;;;;;;;48.00;33.97;;;20.80;99.90;;;;;;5034749;28;20511;-81
2023/06/29 10:50:09;;;;;;;47.07;34.33;;;20.90;99.90;;;;;;5037767;28;20042;-80
2023/06/29 10:52:36;;;;;;;50.65;33.70;;;21.00;99.90;;;;;;5047983;28;20302;-81
2023/06/29 10:55:37;;;;;;;48.08;32.95;;;21.00;99.90;;;;;;5044643;28;20512;-79
2023/06/29 10:58:20;;;;;;;46.78;33.10;;;21.10;99.90;;;;;;5049465;28;20432;-79
2023/06/29 11:00:47;;;;;;;45.05;33.45;;;21.10;99.90;;;;;;5055385;28;20037;-80
2023/06/29 11:03:13;;;;;;;43.10;33.72;;;21.10;99.90;;;;;;5042098;28;20041;-79
2023/06/29 11:05:39;;;;;;;43.10;32.22;;;21.20;99.90;;;;;;5047193;28;20179;-81
2023/06/29 11:08:09;;;;;;;45.25;31.85;;;21.20;99.90;;;;;;5044034;28;20116;-80
2023/06/29 11:10:35;;;;;;;43.55;29.88;;;21.50;99.90;;;;;;5055324;28;20041;-80
2023/06/29 11:13:07;;;;;;;41.72;28.80;;;21.50;99.90;;;;;;5042616;28;20072;-78
2023/06/29 11:15:33;;;;;;;40.70;28.03;;;21.50;99.90;;;;;;5036716;28;20048;-80
2023/06/29 11:18:04;;;;;;;43.80;30.08;;;21.40;99.90;;;;;;5035039;28;20045;-80
2023/06/29 11:20:30;;;;;;;36.78;25.95;;;21.40;99.90;;;;;;5050654;28;20045;-79
2023/06/29 11:22:57;;;;;;;38.72;28.80;;;21.40;99.90;;;;;;5037781;28;20128;-81
2023/06/29 11:25:23;;;;;;;38.47;27.90;;;21.40;99.90;;;;;;5036477;28;20098;-80
2023/06/29 11:27:49;;;;;;;35.55;24.58;;;21.50;99.90;;;;;;5025583;28;20114;-80
2023/06/29 11:30:14;;;;;;;36.55;24.85;;;21.80;99.90;;;;;;5046037;28;20449;-80
2023/06/29 11:32:41;;;;;;;35.90;24.88;;;22.00;99.90;;;;;;5043578;28;20091;-80
2023/06/29 11:35:12;;;;;;;35.65;26.25;;;22.20;99.90;;;;;;5042125;28;20037;-80
2023/06/29 11:37:39;;;;;;;37.05;27.55;;;22.40;99.90;;;;;;5040628;28;20366;-80
2023/06/29 11:40:15;;;;;;;39.25;27.92;;;22.60;99.90;;;;;;5038077;28;20048;-79
2023/06/29 11:42:42;;;;;;;36.88;28.60;;;22.60;99.90;;;;;;5036633;28;20053;-79
2023/06/29 11:45:08;;;;;;;34.40;27.75;;;22.60;99.90;;;;;;5041520;28;20057;-78
2023/06/29 11:47:35;;;;;;;44.25;31.17;;;22.50;99.90;;;;;;5022780;28;20064;-78
2023/06/29 11:50:04;;;;;;;40.65;31.90;;;22.50;99.90;;;;;;5040212;28;20052;-78
2023/06/29 11:52:32;;;;;;;42.03;32.55;;;22.40;99.90;;;;;;5049447;28;20045;-79
2023/06/29 11:55:03;;;;;;;44.58;36.13;;;22.60;99.90;;;;;;5041669;28;20053;-78
2023/06/29 11:57:39;;;;;;;45.75;35.45;;;22.80;99.90;;;;;;5039020;28;20207;-79
2023/06/29 12:00:30;;;;;;;49.38;35.53;;;23.10;99.90;;;;;;5038063;28;20366;-78
2023/06/29 12:02:56;;;;;;;43.83;34.75;;;23.50;99.90;;;;;;5053076;28;20037;-78
2023/06/29 12:05:28;;;;;;;48.88;36.08;;;23.50;99.90;;;;;;5043213;28;20128;-79
2023/06/29 12:07:53;;;;;;;46.38;34.13;;;23.50;99.90;;;;;;5038357;28;20041;-79
2023/06/29 12:10:24;;;;;;;52.15;33.78;;;23.60;99.90;;;;;;5040858;28;20557;-79
2023/06/29 12:12:55;;;;;;;45.10;34.13;;;23.50;99.90;;;;;;5039043;28;20049;-79
2023/06/29 12:15:28;;;;;;;42.00;31.35;;;23.30;99.90;;;;;;5037225;28;20041;-78
2023/06/29 12:18:13;;;;;;;40.47;32.42;;;23.10;99.90;;;;;;5036785;28;20088;-79
2023/06/29 12:20:45;;;;;;;45.70;32.45;;;22.80;99.90;;;;;;5025774;28;20094;-78
2023/06/29 12:23:13;;;;;;;43.28;30.15;;;22.70;99.90;;;;;;5021437;28;20068;-79
2023/06/29 12:25:50;;;;;;;43.45;31.40;;;22.60;99.90;;;;;;5038548;28;21978;-79
2023/06/29 12:28:16;;;;;;;42.70;31.63;;;22.50;99.90;;;;;;5031215;28;20041;-74
2023/06/29 12:30:42;;;;;;;39.25;30.17;;;22.50;99.90;;;;;;5033461;28;20038;-73